sensor_id;sensor_type;location;lat;lon;timestamp;pressure;altitude;pressure_sealevel;temperature;humidity
75886;BME280;64561;44.018;10.144;2022-12-20T00:01:13;103023.13;;;10.72;93.43
75886;BME280;64561;44.018;10.144;2022-12-20T00:03:40;103012.97;;;10.74;93.80
75886;BME280;64561;44.018;10.144;2022-12-20T00:06:07;103004.91;;;10.68;94.20
75886;BME280;64561;44.018;10.144;2022-12-20T00:08:34;103006.69;;;10.69;94.40
75886;BME280;64561;44.018;10.144;2022-12-20T00:11:03;102999.97;;;10.71;94.60
75886;BME280;64561;44.018;10.144;2022-12-20T00:13:31;103004.50;;;10.75;93.98
75886;BME280;64561;44.018;10.144;2022-12-20T00:16:09;102995.13;;;10.75;94.50
75886;BME280;64561;44.018;10.144;2022-12-20T00:18:36;103001.31;;;10.79;94.32
75886;BME280;64561;44.018;10.144;2022-12-20T00:21:06;102995.41;;;10.80;94.29
75886;BME280;64561;44.018;10.144;2022-12-20T00:23:33;103001.31;;;10.79;94.29
75886;BME280;64561;44.018;10.144;2022-12-20T00:26:01;102987.63;;;10.79;94.44
75886;BME280;64561;44.018;10.144;2022-12-20T00:28:29;102985.75;;;10.76;94.76
75886;BME280;64561;44.018;10.144;2022-12-20T00:30:57;102991.06;;;10.79;94.63
75886;BME280;64561;44.018;10.144;2022-12-20T00:33:24;102991.41;;;10.85;94.21
75886;BME280;64561;44.018;10.144;2022-12-20T00:35:54;102983.72;;;10.85;94.10
75886;BME280;64561;44.018;10.144;2022-12-20T00:38:23;102984.72;;;10.87;94.05
75886;BME280;64561;44.018;10.144;2022-12-20T00:41:08;102987.53;;;10.92;93.80
75886;BME280;64561;44.018;10.144;2022-12-20T00:43:36;102983.03;;;10.88;93.94
75886;BME280;64561;44.018;10.144;2022-12-20T00:46:04;102984.72;;;10.87;93.85
75886;BME280;64561;44.018;10.144;2022-12-20T00:48:31;102984.78;;;10.89;93.67
75886;BME280;64561;44.018;10.144;2022-12-20T00:51:01;102974.66;;;10.90;93.91
75886;BME280;64561;44.018;10.144;2022-12-20T00:53:28;102979.84;;;10.92;93.55
75886;BME280;64561;44.018;10.144;2022-12-20T00:55:56;102980.66;;;10.91;93.49
75886;BME280;64561;44.018;10.144;2022-12-20T00:58:23;102987.16;;;10.86;93.90
75886;BME280;64561;44.018;10.144;2022-12-20T01:00:50;102992.41;;;10.87;93.71
75886;BME280;64561;44.018;10.144;2022-12-20T01:03:23;102982.69;;;10.96;93.37
75886;BME280;64561;44.018;10.144;2022-12-20T01:05:56;102990.25;;;10.95;93.42
75886;BME280;64561;44.018;10.144;2022-12-20T01:08:25;102988.50;;;10.94;93.44
75886;BME280;64561;44.018;10.144;2022-12-20T01:10:58;102990.19;;;10.93;93.41
75886;BME280;64561;44.018;10.144;2022-12-20T01:13:26;102984.72;;;10.87;93.37
75886;BME280;64561;44.018;10.144;2022-12-20T01:15:52;102983.84;;;10.87;93.09
75886;BME280;64561;44.018;10.144;2022-12-20T01:18:19;102979.66;;;10.89;93.35
75886;BME280;64561;44.018;10.144;2022-12-20T01:20:46;102988.31;;;10.91;93.75
75886;BME280;64561;44.018;10.144;2022-12-20T01:23:13;102981.34;;;10.88;93.64
75886;BME280;64561;44.018;10.144;2022-12-20T01:25:40;102985.69;;;10.89;93.34
75886;BME280;64561;44.018;10.144;2022-12-20T01:28:07;102980.75;;;10.92;93.56
75886;BME280;64561;44.018;10.144;2022-12-20T01:30:33;102983.19;;;10.91;93.67
75886;BME280;64561;44.018;10.144;2022-12-20T01:33:00;102975.44;;;10.89;93.65
75886;BME280;64561;44.018;10.144;2022-12-20T01:35:27;102979.94;;;10.93;93.59
75886;BME280;64561;44.018;10.144;2022-12-20T01:37:54;102977.84;;;10.86;93.83
75886;BME280;64561;44.018;10.144;2022-12-20T01:40:21;102970.06;;;10.85;93.94
75886;BME280;64561;44.018;10.144;2022-12-20T01:42:47;102967.59;;;10.86;93.86
75886;BME280;64561;44.018;10.144;2022-12-20T01:45:24;102958.06;;;10.84;93.76
75886;BME280;64561;44.018;10.144;2022-12-20T01:47:53;102970.22;;;10.88;93.76
75886;BME280;64561;44.018;10.144;2022-12-20T01:50:20;102964.28;;;10.89;93.88
75886;BME280;64561;44.018;10.144;2022-12-20T01:52:47;102951.50;;;10.89;93.58
75886;BME280;64561;44.018;10.144;2022-12-20T01:55:19;102956.88;;;10.93;93.53
75886;BME280;64561;44.018;10.144;2022-12-20T01:57:55;102957.06;;;10.96;93.48
75886;BME280;64561;44.018;10.144;2022-12-20T02:00:25;102953.63;;;10.96;93.43
75886;BME280;64561;44.018;10.144;2022-12-20T02:02:53;102951.75;;;10.93;93.58
75886;BME280;64561;44.018;10.144;2022-12-20T02:05:22;102947.44;;;10.92;93.39
75886;BME280;64561;44.018;10.144;2022-12-20T02:07:51;102944.78;;;10.91;93.77
75886;BME280;64561;44.018;10.144;2022-12-20T02:10:21;102937.03;;;10.89;93.29
75886;BME280;64561;44.018;10.144;2022-12-20T02:12:55;102938.78;;;10.90;93.17
75886;BME280;64561;44.018;10.144;2022-12-20T02:15:48;102938.69;;;10.89;93.40
75886;BME280;64561;44.018;10.144;2022-12-20T02:30:22;102924.22;;;10.89;92.92
75886;BME280;64561;44.018;10.144;2022-12-20T02:35:26;102915.84;;;10.77;93.41
75886;BME280;64561;44.018;10.144;2022-12-20T02:37:59;102917.59;;;10.78;93.24
75886;BME280;64561;44.018;10.144;2022-12-20T02:40:37;102910.00;;;10.80;93.33
75886;BME280;64561;44.018;10.144;2022-12-20T02:43:07;102906.13;;;10.86;93.25
75886;BME280;64561;44.018;10.144;2022-12-20T02:45:56;102905.94;;;10.83;93.21
75886;BME280;64561;44.018;10.144;2022-12-20T02:48:27;102905.84;;;10.82;93.08
75886;BME280;64561;44.018;10.144;2022-12-20T02:50:57;102904.16;;;10.82;93.32
75886;BME280;64561;44.018;10.144;2022-12-20T02:53:25;102890.41;;;10.80;93.42
75886;BME280;64561;44.018;10.144;2022-12-20T02:56:00;102890.59;;;10.83;93.33
75886;BME280;64561;44.018;10.144;2022-12-20T03:01:21;102899.50;;;10.90;93.46
75886;BME280;64561;44.018;10.144;2022-12-20T03:03:50;102892.69;;;10.90;93.24
75886;BME280;64561;44.018;10.144;2022-12-20T03:06:18;102894.25;;;10.88;93.31
75886;BME280;64561;44.018;10.144;2022-12-20T03:08:45;102895.88;;;10.86;92.96
75886;BME280;64561;44.018;10.144;2022-12-20T03:11:12;102894.25;;;10.88;92.91
75886;BME280;64561;44.018;10.144;2022-12-20T03:13:40;102894.25;;;10.88;93.10
75886;BME280;64561;44.018;10.144;2022-12-20T03:16:08;102890.50;;;10.67;94.21
75886;BME280;64561;44.018;10.144;2022-12-20T03:18:37;102891.66;;;10.72;94.15
75886;BME280;64561;44.018;10.144;2022-12-20T03:21:04;102895.00;;;10.71;94.25
75886;BME280;64561;44.018;10.144;2022-12-20T03:23:31;102888.03;;;10.68;94.25
75886;BME280;64561;44.018;10.144;2022-12-20T03:25:58;102888.81;;;10.67;94.24
75886;BME280;64561;44.018;10.144;2022-12-20T03:28:44;102892.44;;;10.71;93.92
75886;BME280;64561;44.018;10.144;2022-12-20T03:31:16;102893.50;;;10.74;93.80
75886;BME280;64561;44.018;10.144;2022-12-20T03:33:49;102894.56;;;10.78;93.93
75886;BME280;64561;44.018;10.144;2022-12-20T03:36:16;102884.16;;;10.75;93.88
75886;BME280;64561;44.018;10.144;2022-12-20T03:38:53;102886.69;;;10.75;93.79
75886;BME280;64561;44.018;10.144;2022-12-20T03:41:22;102882.00;;;10.68;94.34
75886;BME280;64561;44.018;10.144;2022-12-20T03:43:51;102877.53;;;10.64;94.72
75886;BME280;64561;44.018;10.144;2022-12-20T03:46:19;102874.91;;;10.62;94.23
75886;BME280;64561;44.018;10.144;2022-12-20T03:48:47;102888.03;;;10.68;94.38
75886;BME280;64561;44.018;10.144;2022-12-20T03:51:13;102887.41;;;10.72;94.03
75886;BME280;64561;44.018;10.144;2022-12-20T03:53:40;102885.13;;;10.77;93.88
75886;BME280;64561;44.018;10.144;2022-12-20T03:56:09;102887.75;;;10.79;93.88
75886;BME280;64561;44.018;10.144;2022-12-20T03:58:37;102887.94;;;10.82;93.98
75886;BME280;64561;44.018;10.144;2022-12-20T04:01:23;102888.09;;;10.85;93.84
75886;BME280;64561;44.018;10.144;2022-12-20T04:03:51;102891.38;;;10.82;93.57
75886;BME280;64561;44.018;10.144;2022-12-20T04:06:19;102899.22;;;10.85;93.61
75886;BME280;64561;44.018;10.144;2022-12-20T04:08:46;102898.63;;;10.89;93.64
75886;BME280;64561;44.018;10.144;2022-12-20T04:11:21;102896.06;;;10.89;93.51
75886;BME280;64561;44.018;10.144;2022-12-20T04:14:06;102891.72;;;10.88;93.96
75886;BME280;64561;44.018;10.144;2022-12-20T04:16:34;102889.25;;;10.90;93.70
75886;BME280;64561;44.018;10.144;2022-12-20T04:19:01;102887.56;;;10.90;93.84
75886;BME280;64561;44.018;10.144;2022-12-20T04:21:34;102888.53;;;10.92;94.03
75886;BME280;64561;44.018;10.144;2022-12-20T04:24:03;102891.16;;;10.94;93.80
75886;BME280;64561;44.018;10.144;2022-12-20T04:26:42;102889.22;;;11.05;93.40
75886;BME280;64561;44.018;10.144;2022-12-20T04:29:10;102888.69;;;11.10;93.02
75886;BME280;64561;44.018;10.144;2022-12-20T04:31:38;102894.41;;;11.06;93.21
75886;BME280;64561;44.018;10.144;2022-12-20T04:34:05;102891.34;;;10.97;93.59
75886;BME280;64561;44.018;10.144;2022-12-20T04:36:33;102891.63;;;10.87;94.47
75886;BME280;64561;44.018;10.144;2022-12-20T04:39:03;102884.19;;;10.91;94.18
75886;BME280;64561;44.018;10.144;2022-12-20T04:41:41;102882.63;;;10.93;93.97
75886;BME280;64561;44.018;10.144;2022-12-20T04:44:11;102878.69;;;11.00;93.97
75886;BME280;64561;44.018;10.144;2022-12-20T04:46:38;102876.06;;;10.98;93.96
75886;BME280;64561;44.018;10.144;2022-12-20T04:49:09;102876.78;;;10.96;94.28
75886;BME280;64561;44.018;10.144;2022-12-20T04:51:39;102866.78;;;11.01;93.95
75886;BME280;64561;44.018;10.144;2022-12-20T04:54:06;102867.69;;;11.01;94.15
75886;BME280;64561;44.018;10.144;2022-12-20T04:56:39;102863.34;;;11.00;93.86
75886;BME280;64561;44.018;10.144;2022-12-20T04:59:09;102864.31;;;11.02;93.67
75886;BME280;64561;44.018;10.144;2022-12-20T05:01:39;102865.03;;;10.99;93.75
75886;BME280;64561;44.018;10.144;2022-12-20T05:04:07;102865.81;;;10.98;94.19
75886;BME280;64561;44.018;10.144;2022-12-20T05:06:36;102864.91;;;10.98;94.37
75886;BME280;64561;44.018;10.144;2022-12-20T05:09:03;102864.03;;;10.97;94.08
75886;BME280;64561;44.018;10.144;2022-12-20T05:11:31;102860.53;;;10.95;94.05
75886;BME280;64561;44.018;10.144;2022-12-20T05:13:59;102858.59;;;10.91;94.08
75886;BME280;64561;44.018;10.144;2022-12-20T05:16:26;102861.31;;;10.94;94.18
75886;BME280;64561;44.018;10.144;2022-12-20T05:18:53;102855.41;;;10.95;94.12
75886;BME280;64561;44.018;10.144;2022-12-20T05:21:20;102858.84;;;10.96;94.11
75886;BME280;64561;44.018;10.144;2022-12-20T05:24:08;102856.28;;;10.96;93.87
75886;BME280;64561;44.018;10.144;2022-12-20T05:27:13;102856.81;;;10.90;93.91
75886;BME280;64561;44.018;10.144;2022-12-20T05:29:40;102850.72;;;10.88;94.23
75886;BME280;64561;44.018;10.144;2022-12-20T05:32:08;102852.84;;;10.95;94.05
75886;BME280;64561;44.018;10.144;2022-12-20T05:34:38;102853.63;;;10.94;93.91
75886;BME280;64561;44.018;10.144;2022-12-20T05:37:05;102845.00;;;10.92;93.98
75886;BME280;64561;44.018;10.144;2022-12-20T05:39:34;102843.31;;;10.93;94.06
75886;BME280;64561;44.018;10.144;2022-12-20T05:42:07;102844.19;;;10.93;93.98
75886;BME280;64561;44.018;10.144;2022-12-20T05:44:34;102846.97;;;10.98;94.07
75886;BME280;64561;44.018;10.144;2022-12-20T05:47:01;102843.56;;;10.97;93.70
75886;BME280;64561;44.018;10.144;2022-12-20T05:49:30;102834.13;;;10.96;93.88
75886;BME280;64561;44.018;10.144;2022-12-20T05:52:01;102839.13;;;10.95;94.04
75886;BME280;64561;44.018;10.144;2022-12-20T05:54:31;102837.38;;;10.94;93.96
75886;BME280;64561;44.018;10.144;2022-12-20T05:57:09;102841.00;;;10.97;93.84
75886;BME280;64561;44.018;10.144;2022-12-20T05:59:41;102844.44;;;10.98;93.72
75886;BME280;64561;44.018;10.144;2022-12-20T06:02:21;102845.34;;;10.98;93.68
75886;BME280;64561;44.018;10.144;2022-12-20T06:04:54;102837.72;;;11.00;94.02
75886;BME280;64561;44.018;10.144;2022-12-20T06:07:22;102840.03;;;10.95;93.50
75886;BME280;64561;44.018;10.144;2022-12-20T06:09:55;102838.91;;;10.90;93.57
75886;BME280;64561;44.018;10.144;2022-12-20T06:12:26;102848.50;;;10.94;93.93
75886;BME280;64561;44.018;10.144;2022-12-20T06:14:53;102837.03;;;10.88;93.90
75886;BME280;64561;44.018;10.144;2022-12-20T06:17:20;102833.59;;;10.87;93.96
75886;BME280;64561;44.018;10.144;2022-12-20T06:19:50;102835.47;;;10.90;94.08
75886;BME280;64561;44.018;10.144;2022-12-20T06:22:17;102833.78;;;10.90;93.92
75886;BME280;64561;44.018;10.144;2022-12-20T06:24:50;102827.78;;;10.90;93.91
75886;BME280;64561;44.018;10.144;2022-12-20T06:27:22;102838.09;;;10.91;93.79
75886;BME280;64561;44.018;10.144;2022-12-20T06:29:58;102841.63;;;10.93;93.96
75886;BME280;64561;44.018;10.144;2022-12-20T06:32:32;102837.47;;;10.95;93.72
75886;BME280;64561;44.018;10.144;2022-12-20T06:34:59;102841.97;;;10.99;93.86
75886;BME280;64561;44.018;10.144;2022-12-20T06:37:27;102839.41;;;10.99;94.00
75886;BME280;64561;44.018;10.144;2022-12-20T06:39:54;102847.97;;;11.00;93.63
75886;BME280;64561;44.018;10.144;2022-12-20T06:42:21;102846.22;;;10.99;94.02
75886;BME280;64561;44.018;10.144;2022-12-20T06:44:49;102841.09;;;10.99;93.82
75886;BME280;64561;44.018;10.144;2022-12-20T06:47:16;102847.09;;;10.99;93.77
75886;BME280;64561;44.018;10.144;2022-12-20T06:49:46;102845.34;;;10.98;93.92
75886;BME280;64561;44.018;10.144;2022-12-20T06:52:20;102842.84;;;11.00;94.13
75886;BME280;64561;44.018;10.144;2022-12-20T06:54:50;102840.22;;;10.98;94.01
75886;BME280;64561;44.018;10.144;2022-12-20T06:57:18;102837.66;;;10.98;94.09
75886;BME280;64561;44.018;10.144;2022-12-20T06:59:46;102841.78;;;10.96;94.39
75886;BME280;64561;44.018;10.144;2022-12-20T07:02:13;102843.38;;;10.94;94.43
75886;BME280;64561;44.018;10.144;2022-12-20T07:04:41;102852.84;;;10.95;94.74
75886;BME280;64561;44.018;10.144;2022-12-20T07:07:07;102842.44;;;10.92;94.75
75886;BME280;64561;44.018;10.144;2022-12-20T07:09:34;102841.47;;;10.90;94.69
75886;BME280;64561;44.018;10.144;2022-12-20T07:12:03;102850.03;;;10.91;94.71
75886;BME280;64561;44.018;10.144;2022-12-20T07:14:30;102848.59;;;10.96;95.06
75886;BME280;64561;44.018;10.144;2022-12-20T07:16:57;102853.03;;;10.98;94.69
75886;BME280;64561;44.018;10.144;2022-12-20T07:19:24;102846.97;;;10.98;94.82
75886;BME280;64561;44.018;10.144;2022-12-20T07:21:51;102843.91;;;10.89;95.75
75886;BME280;64561;44.018;10.144;2022-12-20T07:24:18;102841.47;;;10.90;96.57
75886;BME280;64561;44.018;10.144;2022-12-20T07:26:45;102841.47;;;10.90;96.71
75886;BME280;64561;44.018;10.144;2022-12-20T07:29:12;102840.59;;;10.90;96.64
75886;BME280;64561;44.018;10.144;2022-12-20T07:31:41;102844.91;;;10.91;96.78
75886;BME280;64561;44.018;10.144;2022-12-20T07:34:09;102837.31;;;10.92;96.74
75886;BME280;64561;44.018;10.144;2022-12-20T07:36:36;102843.38;;;10.94;97.03
75886;BME280;64561;44.018;10.144;2022-12-20T07:39:03;102839.31;;;10.98;97.15
75886;BME280;64561;44.018;10.144;2022-12-20T07:41:30;102831.63;;;10.98;97.15
75886;BME280;64561;44.018;10.144;2022-12-20T07:43:58;102841.97;;;10.99;96.89
75886;BME280;64561;44.018;10.144;2022-12-20T07:46:25;102843.19;;;11.06;96.87
75886;BME280;64561;44.018;10.144;2022-12-20T07:48:53;102840.00;;;11.10;96.40
75886;BME280;64561;44.018;10.144;2022-12-20T07:51:24;102847.03;;;11.14;96.11
75886;BME280;64561;44.018;10.144;2022-12-20T07:54:02;102841.09;;;11.15;95.84
75886;BME280;64561;44.018;10.144;2022-12-20T07:56:32;102845.53;;;11.18;95.40
75886;BME280;64561;44.018;10.144;2022-12-20T07:59:09;102842.31;;;11.22;95.57
75886;BME280;64561;44.018;10.144;2022-12-20T08:01:37;102849.28;;;11.25;95.31
75886;BME280;64561;44.018;10.144;2022-12-20T08:04:10;102836.41;;;11.23;95.46
75886;BME280;64561;44.018;10.144;2022-12-20T08:06:39;102842.47;;;11.25;95.30
75886;BME280;64561;44.018;10.144;2022-12-20T08:09:08;102838.50;;;11.30;95.22
75886;BME280;64561;44.018;10.144;2022-12-20T08:11:41;102843.63;;;11.30;95.44
75886;BME280;64561;44.018;10.144;2022-12-20T08:14:09;102839.13;;;11.26;95.18
75886;BME280;64561;44.018;10.144;2022-12-20T08:16:36;102842.47;;;11.25;95.46
75886;BME280;64561;44.018;10.144;2022-12-20T08:19:03;102848.75;;;11.30;95.15
75886;BME280;64561;44.018;10.144;2022-12-20T08:21:30;102853.97;;;11.32;94.68
75886;BME280;64561;44.018;10.144;2022-12-20T08:23:57;102853.88;;;11.30;94.99
75886;BME280;64561;44.018;10.144;2022-12-20T08:26:24;102853.09;;;11.31;95.28
75886;BME280;64561;44.018;10.144;2022-12-20T08:28:51;102849.72;;;11.32;95.23
75886;BME280;64561;44.018;10.144;2022-12-20T08:31:18;102857.56;;;11.35;95.07
75886;BME280;64561;44.018;10.144;2022-12-20T08:33:45;102857.63;;;11.37;95.27
75886;BME280;64561;44.018;10.144;2022-12-20T08:36:13;102851.72;;;11.38;94.98
75886;BME280;64561;44.018;10.144;2022-12-20T08:38:40;102850.84;;;11.37;94.79
75886;BME280;64561;44.018;10.144;2022-12-20T08:41:10;102860.19;;;11.37;95.14
75886;BME280;64561;44.018;10.144;2022-12-20T08:43:38;102855.97;;;11.37;94.94
75886;BME280;64561;44.018;10.144;2022-12-20T08:46:06;102855.16;;;11.38;95.06
75886;BME280;64561;44.018;10.144;2022-12-20T08:48:33;102851.72;;;11.38;94.93
75886;BME280;64561;44.018;10.144;2022-12-20T08:51:03;102850.03;;;11.38;95.03
75886;BME280;64561;44.018;10.144;2022-12-20T08:53:31;102857.91;;;11.41;95.05
75886;BME280;64561;44.018;10.144;2022-12-20T08:56:17;102851.34;;;11.47;95.02
75886;BME280;64561;44.018;10.144;2022-12-20T08:58:49;102856.47;;;11.47;95.06
75886;BME280;64561;44.018;10.144;2022-12-20T09:01:19;102860.78;;;11.48;95.15
75886;BME280;64561;44.018;10.144;2022-12-20T09:03:49;102865.91;;;11.48;94.92
75886;BME280;64561;44.018;10.144;2022-12-20T09:06:19;102862.88;;;11.55;95.11
75886;BME280;64561;44.018;10.144;2022-12-20T09:08:47;102853.50;;;11.55;94.98
75886;BME280;64561;44.018;10.144;2022-12-20T09:11:17;102859.41;;;11.54;95.00
75886;BME280;64561;44.018;10.144;2022-12-20T09:13:45;102862.88;;;11.55;95.33
75886;BME280;64561;44.018;10.144;2022-12-20T09:16:14;102855.09;;;11.53;95.17
75886;BME280;64561;44.018;10.144;2022-12-20T09:18:41;102855.16;;;11.55;95.12
75886;BME280;64561;44.018;10.144;2022-12-20T09:21:10;102850.84;;;11.54;95.38
75886;BME280;64561;44.018;10.144;2022-12-20T09:23:37;102852.69;;;11.56;95.16
75886;BME280;64561;44.018;10.144;2022-12-20T09:26:14;102858.16;;;11.62;95.14
75886;BME280;64561;44.018;10.144;2022-12-20T09:28:45;102860.06;;;11.66;95.07
75886;BME280;64561;44.018;10.144;2022-12-20T09:31:14;102858.31;;;11.65;95.15
75886;BME280;64561;44.018;10.144;2022-12-20T09:33:42;102854.88;;;11.65;95.28
75886;BME280;64561;44.018;10.144;2022-12-20T09:36:14;102863.34;;;11.64;95.04
75886;BME280;64561;44.018;10.144;2022-12-20T09:38:43;102859.03;;;11.63;94.99
75886;BME280;64561;44.018;10.144;2022-12-20T09:41:40;102852.22;;;11.63;95.02
75886;BME280;64561;44.018;10.144;2022-12-20T09:44:37;102847.41;;;11.70;94.99
75886;BME280;64561;44.018;10.144;2022-12-20T09:47:11;102844.94;;;11.71;95.11
75886;BME280;64561;44.018;10.144;2022-12-20T09:49:43;102846.69;;;11.72;94.99
75886;BME280;64561;44.018;10.144;2022-12-20T09:55:28;102833.84;;;11.72;95.21
75886;BME280;64561;44.018;10.144;2022-12-20T09:58:26;102844.22;;;11.74;95.02
75886;BME280;64561;44.018;10.144;2022-12-20T10:00:56;102834.72;;;11.73;95.36
75886;BME280;64561;44.018;10.144;2022-12-20T10:03:31;102828.88;;;11.75;95.26
75886;BME280;64561;44.018;10.144;2022-12-20T10:06:10;102827.44;;;11.80;95.33
75886;BME280;64561;44.018;10.144;2022-12-20T10:08:45;102824.06;;;11.81;95.17
75886;BME280;64561;44.018;10.144;2022-12-20T10:14:10;102822.56;;;11.85;95.14
75886;BME280;64561;44.018;10.144;2022-12-20T10:16:45;102811.69;;;11.89;95.32
75886;BME280;64561;44.018;10.144;2022-12-20T10:19:29;102811.59;;;11.87;95.18
75886;BME280;64561;44.018;10.144;2022-12-20T10:22:11;102809.03;;;11.87;95.30
75886;BME280;64561;44.018;10.144;2022-12-20T10:24:44;102793.63;;;11.87;95.41
75886;BME280;64561;44.018;10.144;2022-12-20T10:27:17;102803.09;;;11.88;95.39
75886;BME280;64561;44.018;10.144;2022-12-20T10:29:45;102802.59;;;11.96;95.39
75886;BME280;64561;44.018;10.144;2022-12-20T10:32:19;102802.81;;;12.00;95.44
75886;BME280;64561;44.018;10.144;2022-12-20T10:34:55;102804.25;;;12.11;95.20
75886;BME280;64561;44.018;10.144;2022-12-20T10:37:23;102795.47;;;12.06;95.23
75886;BME280;64561;44.018;10.144;2022-12-20T10:39:51;102796.19;;;12.04;95.16
75886;BME280;64561;44.018;10.144;2022-12-20T10:42:25;102794.50;;;12.04;95.30
75886;BME280;64561;44.018;10.144;2022-12-20T10:44:53;102794.63;;;12.07;95.28
75886;BME280;64561;44.018;10.144;2022-12-20T10:52:41;102789.72;;;12.12;94.94
75886;BME280;64561;44.018;10.144;2022-12-20T10:55:32;102788.41;;;12.20;95.09
75886;BME280;64561;44.018;10.144;2022-12-20T10:58:16;102788.09;;;12.30;95.18
75886;BME280;64561;44.018;10.144;2022-12-20T11:01:09;102784.03;;;12.35;94.93
75886;BME280;64561;44.018;10.144;2022-12-20T11:03:56;102777.78;;;12.48;94.54
75886;BME280;64561;44.018;10.144;2022-12-20T11:06:28;102781.69;;;12.58;94.13
75886;BME280;64561;44.018;10.144;2022-12-20T11:09:22;102773.06;;;12.75;93.85
75886;BME280;64561;44.018;10.144;2022-12-20T11:12:00;102775.28;;;12.86;93.30
75886;BME280;64561;44.018;10.144;2022-12-20T11:14:29;102773.84;;;12.92;92.30
75886;BME280;64561;44.018;10.144;2022-12-20T11:17:40;102771.56;;;12.98;92.42
75886;BME280;64561;44.018;10.144;2022-12-20T11:20:34;102766.19;;;13.12;91.66
75886;BME280;64561;44.018;10.144;2022-12-20T11:39:33;102743.16;;;12.95;89.83
75886;BME280;64561;44.018;10.144;2022-12-20T11:47:46;102727.28;;;13.04;89.72
75886;BME280;64561;44.018;10.144;2022-12-20T11:53:00;102726.03;;;12.96;90.06
75886;BME280;64561;44.018;10.144;2022-12-20T11:55:38;102724.22;;;12.93;89.95
75886;BME280;64561;44.018;10.144;2022-12-20T11:58:12;102720.50;;;12.87;90.14
75886;BME280;64561;44.018;10.144;2022-12-20T12:01:03;102726.38;;;12.84;90.33
75886;BME280;64561;44.018;10.144;2022-12-20T12:03:36;102726.19;;;12.79;90.91
75886;BME280;64561;44.018;10.144;2022-12-20T12:06:07;102722.78;;;12.80;90.88
75886;BME280;64561;44.018;10.144;2022-12-20T12:11:11;102706.56;;;12.81;90.86
75886;BME280;64561;44.018;10.144;2022-12-20T12:14:02;102709.44;;;12.88;90.81
75886;BME280;64561;44.018;10.144;2022-12-20T12:16:40;102709.47;;;12.89;90.78
75886;BME280;64561;44.018;10.144;2022-12-20T12:19:10;102713.78;;;12.90;91.13
75886;BME280;64561;44.018;10.144;2022-12-20T12:21:44;102705.16;;;12.88;91.05
75886;BME280;64561;44.018;10.144;2022-12-20T12:24:31;102687.09;;;12.87;91.15
75886;BME280;64561;44.018;10.144;2022-12-20T12:27:01;102684.53;;;12.87;90.79
75886;BME280;64561;44.018;10.144;2022-12-20T12:29:29;102682.09;;;12.90;90.77
75886;BME280;64561;44.018;10.144;2022-12-20T12:32:09;102686.63;;;12.95;90.57
75886;BME280;64561;44.018;10.144;2022-12-20T12:45:27;102674.16;;;13.43;88.39
75886;BME280;64561;44.018;10.144;2022-12-20T12:50:30;102671.91;;;13.30;88.08
75886;BME280;64561;44.018;10.144;2022-12-20T12:53:11;102668.28;;;13.26;87.82
75886;BME280;64561;44.018;10.144;2022-12-20T12:55:53;102662.28;;;13.26;88.19
75886;BME280;64561;44.018;10.144;2022-12-20T13:04:24;102662.50;;;13.31;87.88
75886;BME280;64561;44.018;10.144;2022-12-20T13:06:59;102655.56;;;13.30;88.00
75886;BME280;64561;44.018;10.144;2022-12-20T13:11:55;102661.41;;;13.25;88.43
75886;BME280;64561;44.018;10.144;2022-12-20T13:19:48;102655.28;;;13.43;87.47
75886;BME280;64561;44.018;10.144;2022-12-20T13:24:57;102648.69;;;13.29;87.53
75886;BME280;64561;44.018;10.144;2022-12-20T13:27:37;102647.97;;;13.33;88.10
75886;BME280;64561;44.018;10.144;2022-12-20T13:38:01;102649.41;;;13.66;88.36
75886;BME280;64561;44.018;10.144;2022-12-20T13:40:43;102643.34;;;13.87;86.82
75886;BME280;64561;44.018;10.144;2022-12-20T13:43:24;102646.56;;;14.02;85.72
75886;BME280;64561;44.018;10.144;2022-12-20T13:48:54;102641.03;;;14.38;82.34
75886;BME280;64561;44.018;10.144;2022-12-20T13:51:24;102638.59;;;14.41;81.09
75886;BME280;64561;44.018;10.144;2022-12-20T13:53:59;102633.00;;;14.51;80.45
75886;BME280;64561;44.018;10.144;2022-12-20T13:58:55;102625.63;;;14.62;78.78
75886;BME280;64561;44.018;10.144;2022-12-20T14:01:25;102625.69;;;14.63;78.79
75886;BME280;64561;44.018;10.144;2022-12-20T14:03:54;102625.53;;;14.59;78.13
75886;BME280;64561;44.018;10.144;2022-12-20T14:06:23;102626.19;;;14.53;77.50
75886;BME280;64561;44.018;10.144;2022-12-20T14:08:53;102628.94;;;14.35;79.06
75886;BME280;64561;44.018;10.144;2022-12-20T14:11:22;102624.13;;;14.22;80.23
75886;BME280;64561;44.018;10.144;2022-12-20T14:14:00;102634.38;;;14.21;80.18
75886;BME280;64561;44.018;10.144;2022-12-20T14:16:30;102630.50;;;14.09;80.74
75886;BME280;64561;44.018;10.144;2022-12-20T14:19:05;102629.28;;;14.00;81.63
75886;BME280;64561;44.018;10.144;2022-12-20T14:21:39;102626.41;;;13.92;81.82
75886;BME280;64561;44.018;10.144;2022-12-20T14:24:16;102627.84;;;13.85;82.30
75886;BME280;64561;44.018;10.144;2022-12-20T14:26:47;102622.50;;;13.81;82.83
75886;BME280;64561;44.018;10.144;2022-12-20T14:29:29;102629.13;;;13.74;83.42
75886;BME280;64561;44.018;10.144;2022-12-20T14:31:56;102626.25;;;13.66;84.01
75886;BME280;64561;44.018;10.144;2022-12-20T14:34:26;102620.03;;;13.61;84.35
75886;BME280;64561;44.018;10.144;2022-12-20T14:39:55;102615.59;;;13.57;84.95
75886;BME280;64561;44.018;10.144;2022-12-20T14:42:26;102613.56;;;13.50;84.61
75886;BME280;64561;44.018;10.144;2022-12-20T14:47:53;102616.75;;;13.44;85.45